Rives, Tennessee
Current Conditions -  °F | °C
As of 5:15 PM on Friday 31 Oct 2014 (Local Time) from KUCY Reporting Station
Broken Clouds Broken Clouds  
Wind Chill: 37°   Ceiling: 6000
Heat Index: 45°   Visibility: 10mi
Dew Point: 23°   Wind: 18mph
Humidity: 43%   Direction: 340°NNW
Pressure: 30.22"   Gusts: NA
Location:  36.36°N, 89.05°W
Report Text: KUCY 312215Z AUTO 34016KT 10SM BKN060 07/M05 A3022 RMK
Loading
Personal Weather Stations






























Interactive Weather Map
Tropical Storm Tracking
New forecast layout! Learn more

10-Day Weather Forecast

Advertisements
Track Severe Weather on mobile